sensor_id;sensor_type;location;lat;lon;timestamp;P1;durP1;ratioP1;P2;durP2;ratioP2
28547;SDS011;15750;49.600;8.746;2022-09-13T00:01:19;4.03;;;3.50;;
28547;SDS011;15750;49.600;8.746;2022-09-13T00:04:06;3.08;;;2.88;;
28547;SDS011;15750;49.600;8.746;2022-09-13T00:06:54;3.13;;;2.83;;
28547;SDS011;15750;49.600;8.746;2022-09-13T00:09:42;3.63;;;3.33;;
28547;SDS011;15750;49.600;8.746;2022-09-13T00:12:29;3.22;;;2.92;;
28547;SDS011;15750;49.600;8.746;2022-09-13T00:15:16;3.67;;;3.38;;
28547;SDS011;15750;49.600;8.746;2022-09-13T00:18:05;6.25;;;3.38;;
28547;SDS011;15750;49.600;8.746;2022-09-13T00:21:02;4.10;;;3.70;;
28547;SDS011;15750;49.600;8.746;2022-09-13T00:23:52;4.15;;;3.40;;
28547;SDS011;15750;49.600;8.746;2022-09-13T00:26:40;3.80;;;3.50;;
28547;SDS011;15750;49.600;8.746;2022-09-13T00:29:27;4.47;;;3.25;;
28547;SDS011;15750;49.600;8.746;2022-09-13T00:32:15;3.63;;;2.90;;
28547;SDS011;15750;49.600;8.746;2022-09-13T00:35:04;4.60;;;3.20;;
28547;SDS011;15750;49.600;8.746;2022-09-13T00:37:53;3.42;;;3.20;;
28547;SDS011;15750;49.600;8.746;2022-09-13T00:40:40;3.10;;;2.90;;
28547;SDS011;15750;49.600;8.746;2022-09-13T00:43:39;3.05;;;2.85;;
28547;SDS011;15750;49.600;8.746;2022-09-13T00:46:32;3.35;;;3.15;;
28547;SDS011;15750;49.600;8.746;2022-09-13T00:49:26;3.33;;;2.85;;
28547;SDS011;15750;49.600;8.746;2022-09-13T00:52:21;5.47;;;2.75;;
28547;SDS011;15750;49.600;8.746;2022-09-13T00:55:12;3.25;;;2.95;;
28547;SDS011;15750;49.600;8.746;2022-09-13T00:58:04;3.05;;;2.85;;
28547;SDS011;15750;49.600;8.746;2022-09-13T01:00:56;3.38;;;3.13;;
28547;SDS011;15750;49.600;8.746;2022-09-13T01:03:45;4.72;;;2.97;;
28547;SDS011;15750;49.600;8.746;2022-09-13T01:06:34;3.83;;;3.50;;
28547;SDS011;15750;49.600;8.746;2022-09-13T01:09:27;3.67;;;3.38;;
28547;SDS011;15750;49.600;8.746;2022-09-13T01:12:20;3.63;;;3.33;;
28547;SDS011;15750;49.600;8.746;2022-09-13T01:15:19;3.50;;;3.20;;
28547;SDS011;15750;49.600;8.746;2022-09-13T01:18:07;3.53;;;3.28;;
28547;SDS011;15750;49.600;8.746;2022-09-13T01:21:02;3.50;;;3.03;;
28547;SDS011;15750;49.600;8.746;2022-09-13T01:24:50;3.25;;;3.05;;
28547;SDS011;15750;49.600;8.746;2022-09-13T01:28:09;3.92;;;2.97;;
28547;SDS011;15750;49.600;8.746;2022-09-13T01:31:24;3.42;;;3.17;;
28547;SDS011;15750;49.600;8.746;2022-09-13T01:34:23;3.45;;;3.15;;
28547;SDS011;15750;49.600;8.746;2022-09-13T01:37:26;5.20;;;3.00;;
28547;SDS011;15750;49.600;8.746;2022-09-13T01:40:31;3.47;;;3.17;;
28547;SDS011;15750;49.600;8.746;2022-09-13T01:43:31;4.57;;;3.60;;
28547;SDS011;15750;49.600;8.746;2022-09-13T01:46:30;3.58;;;3.28;;
28547;SDS011;15750;49.600;8.746;2022-09-13T01:49:26;3.53;;;3.22;;
28547;SDS011;15750;49.600;8.746;2022-09-13T01:52:20;3.95;;;3.22;;
28547;SDS011;15750;49.600;8.746;2022-09-13T01:55:17;3.50;;;3.22;;
28547;SDS011;15750;49.600;8.746;2022-09-13T01:58:16;3.65;;;3.10;;
28547;SDS011;15750;49.600;8.746;2022-09-13T02:01:11;3.63;;;3.30;;
28547;SDS011;15750;49.600;8.746;2022-09-13T02:04:04;3.20;;;2.90;;
28547;SDS011;15750;49.600;8.746;2022-09-13T02:06:59;2.88;;;2.67;;
28547;SDS011;15750;49.600;8.746;2022-09-13T02:09:51;3.40;;;3.20;;
28547;SDS011;15750;49.600;8.746;2022-09-13T02:12:45;4.10;;;3.75;;
28547;SDS011;15750;49.600;8.746;2022-09-13T02:15:35;3.50;;;3.20;;
28547;SDS011;15750;49.600;8.746;2022-09-13T02:18:27;3.65;;;3.35;;
28547;SDS011;15750;49.600;8.746;2022-09-13T02:21:21;3.10;;;2.70;;
28547;SDS011;15750;49.600;8.746;2022-09-13T02:24:14;3.60;;;3.20;;
28547;SDS011;15750;49.600;8.746;2022-09-13T02:27:06;3.00;;;2.80;;
28547;SDS011;15750;49.600;8.746;2022-09-13T02:29:57;3.58;;;3.28;;
28547;SDS011;15750;49.600;8.746;2022-09-13T02:32:53;3.72;;;2.75;;
28547;SDS011;15750;49.600;8.746;2022-09-13T02:35:44;3.08;;;2.63;;
28547;SDS011;15750;49.600;8.746;2022-09-13T02:38:40;3.58;;;3.10;;
28547;SDS011;15750;49.600;8.746;2022-09-13T02:41:34;2.90;;;2.70;;
28547;SDS011;15750;49.600;8.746;2022-09-13T02:44:30;3.00;;;2.80;;
28547;SDS011;15750;49.600;8.746;2022-09-13T02:47:26;3.20;;;3.00;;
28547;SDS011;15750;49.600;8.746;2022-09-13T02:50:33;3.10;;;2.90;;
28547;SDS011;15750;49.600;8.746;2022-09-13T02:53:34;3.90;;;3.20;;
28547;SDS011;15750;49.600;8.746;2022-09-13T02:56:29;6.05;;;3.13;;
28547;SDS011;15750;49.600;8.746;2022-09-13T02:59:25;3.28;;;3.08;;
28547;SDS011;15750;49.600;8.746;2022-09-13T03:02:13;3.60;;;3.30;;
28547;SDS011;15750;49.600;8.746;2022-09-13T03:05:04;3.45;;;3.17;;
28547;SDS011;15750;49.600;8.746;2022-09-13T03:07:52;4.88;;;3.20;;
28547;SDS011;15750;49.600;8.746;2022-09-13T03:10:46;4.85;;;3.10;;
28547;SDS011;15750;49.600;8.746;2022-09-13T03:13:52;3.67;;;3.47;;
28547;SDS011;15750;49.600;8.746;2022-09-13T03:20:09;3.20;;;2.80;;
28547;SDS011;15750;49.600;8.746;2022-09-13T03:23:12;3.53;;;3.33;;
28547;SDS011;15750;49.600;8.746;2022-09-13T03:26:26;3.17;;;2.88;;
28547;SDS011;15750;49.600;8.746;2022-09-13T03:29:29;3.42;;;2.95;;
28547;SDS011;15750;49.600;8.746;2022-09-13T03:32:27;3.40;;;3.10;;
28547;SDS011;15750;49.600;8.746;2022-09-13T03:35:24;3.20;;;2.90;;
28547;SDS011;15750;49.600;8.746;2022-09-13T03:38:18;3.28;;;3.08;;
28547;SDS011;15750;49.600;8.746;2022-09-13T03:41:12;3.45;;;3.20;;
28547;SDS011;15750;49.600;8.746;2022-09-13T03:44:06;3.20;;;3.00;;
28547;SDS011;15750;49.600;8.746;2022-09-13T03:46:57;3.08;;;2.88;;
28547;SDS011;15750;49.600;8.746;2022-09-13T03:49:48;2.95;;;2.75;;
28547;SDS011;15750;49.600;8.746;2022-09-13T03:52:36;3.22;;;2.92;;
28547;SDS011;15750;49.600;8.746;2022-09-13T03:55:30;3.47;;;3.17;;
28547;SDS011;15750;49.600;8.746;2022-09-13T03:58:20;3.25;;;3.00;;
28547;SDS011;15750;49.600;8.746;2022-09-13T04:01:11;5.40;;;3.28;;
28547;SDS011;15750;49.600;8.746;2022-09-13T04:03:58;3.10;;;2.90;;
28547;SDS011;15750;49.600;8.746;2022-09-13T04:06:46;3.42;;;3.17;;
28547;SDS011;15750;49.600;8.746;2022-09-13T04:09:33;4.30;;;3.15;;
28547;SDS011;15750;49.600;8.746;2022-09-13T04:12:20;4.10;;;3.70;;
28547;SDS011;15750;49.600;8.746;2022-09-13T04:15:08;3.45;;;3.13;;
28547;SDS011;15750;49.600;8.746;2022-09-13T04:17:57;3.00;;;2.80;;
28547;SDS011;15750;49.600;8.746;2022-09-13T04:20:52;3.38;;;3.08;;
28547;SDS011;15750;49.600;8.746;2022-09-13T04:23:40;3.72;;;3.42;;
28547;SDS011;15750;49.600;8.746;2022-09-13T04:26:27;3.83;;;3.53;;
28547;SDS011;15750;49.600;8.746;2022-09-13T04:29:14;3.10;;;2.85;;
28547;SDS011;15750;49.600;8.746;2022-09-13T04:32:02;3.65;;;3.35;;
28547;SDS011;15750;49.600;8.746;2022-09-13T04:34:51;3.85;;;3.50;;
28547;SDS011;15750;49.600;8.746;2022-09-13T04:37:38;3.30;;;3.10;;
28547;SDS011;15750;49.600;8.746;2022-09-13T04:40:26;3.38;;;3.17;;
28547;SDS011;15750;49.600;8.746;2022-09-13T04:43:14;3.47;;;3.28;;
28547;SDS011;15750;49.600;8.746;2022-09-13T04:46:01;3.33;;;3.03;;
28547;SDS011;15750;49.600;8.746;2022-09-13T04:48:49;3.53;;;2.70;;
28547;SDS011;15750;49.600;8.746;2022-09-13T04:51:38;3.88;;;3.17;;
28547;SDS011;15750;49.600;8.746;2022-09-13T04:54:25;3.80;;;3.30;;
28547;SDS011;15750;49.600;8.746;2022-09-13T04:57:12;3.75;;;3.40;;
28547;SDS011;15750;49.600;8.746;2022-09-13T05:00:00;3.55;;;3.25;;
28547;SDS011;15750;49.600;8.746;2022-09-13T05:02:48;4.35;;;3.50;;
28547;SDS011;15750;49.600;8.746;2022-09-13T05:05:41;4.32;;;2.78;;
28547;SDS011;15750;49.600;8.746;2022-09-13T05:08:30;3.80;;;3.50;;
28547;SDS011;15750;49.600;8.746;2022-09-13T05:11:17;3.88;;;3.47;;
28547;SDS011;15750;49.600;8.746;2022-09-13T05:14:04;4.18;;;3.63;;
28547;SDS011;15750;49.600;8.746;2022-09-13T05:16:51;3.40;;;3.08;;
28547;SDS011;15750;49.600;8.746;2022-09-13T05:19:39;8.13;;;3.58;;
28547;SDS011;15750;49.600;8.746;2022-09-13T05:22:26;3.38;;;3.17;;
28547;SDS011;15750;49.600;8.746;2022-09-13T05:25:14;3.80;;;3.13;;
28547;SDS011;15750;49.600;8.746;2022-09-13T05:28:02;4.13;;;3.20;;
28547;SDS011;15750;49.600;8.746;2022-09-13T05:30:53;3.25;;;3.00;;
28547;SDS011;15750;49.600;8.746;2022-09-13T05:33:42;3.38;;;2.92;;
28547;SDS011;15750;49.600;8.746;2022-09-13T05:36:31;3.65;;;3.35;;
28547;SDS011;15750;49.600;8.746;2022-09-13T05:39:19;3.78;;;3.28;;
28547;SDS011;15750;49.600;8.746;2022-09-13T05:42:28;4.57;;;3.42;;
28547;SDS011;15750;49.600;8.746;2022-09-13T05:45:15;3.80;;;3.20;;
28547;SDS011;15750;49.600;8.746;2022-09-13T05:48:02;3.30;;;3.10;;
28547;SDS011;15750;49.600;8.746;2022-09-13T05:50:50;3.42;;;3.22;;
28547;SDS011;15750;49.600;8.746;2022-09-13T05:53:44;3.47;;;3.17;;
28547;SDS011;15750;49.600;8.746;2022-09-13T05:56:33;3.40;;;3.20;;
28547;SDS011;15750;49.600;8.746;2022-09-13T05:59:21;3.70;;;3.40;;
28547;SDS011;15750;49.600;8.746;2022-09-13T06:02:09;3.47;;;3.28;;
28547;SDS011;15750;49.600;8.746;2022-09-13T06:04:56;4.70;;;3.33;;
28547;SDS011;15750;49.600;8.746;2022-09-13T06:07:43;3.78;;;3.47;;
28547;SDS011;15750;49.600;8.746;2022-09-13T06:10:30;3.75;;;3.40;;
28547;SDS011;15750;49.600;8.746;2022-09-13T06:13:18;3.78;;;3.53;;
28547;SDS011;15750;49.600;8.746;2022-09-13T06:16:07;3.97;;;3.67;;
28547;SDS011;15750;49.600;8.746;2022-09-13T06:18:57;3.78;;;3.45;;
28547;SDS011;15750;49.600;8.746;2022-09-13T06:21:44;4.10;;;3.67;;
28547;SDS011;15750;49.600;8.746;2022-09-13T06:24:31;5.63;;;3.50;;
28547;SDS011;15750;49.600;8.746;2022-09-13T06:27:18;4.53;;;3.85;;
28547;SDS011;15750;49.600;8.746;2022-09-13T06:30:06;4.20;;;3.80;;
28547;SDS011;15750;49.600;8.746;2022-09-13T06:32:58;3.63;;;3.35;;
28547;SDS011;15750;49.600;8.746;2022-09-13T06:35:46;3.72;;;3.42;;
28547;SDS011;15750;49.600;8.746;2022-09-13T06:38:33;3.47;;;3.22;;
28547;SDS011;15750;49.600;8.746;2022-09-13T06:41:20;4.55;;;4.00;;
28547;SDS011;15750;49.600;8.746;2022-09-13T06:44:10;3.63;;;3.20;;
28547;SDS011;15750;49.600;8.746;2022-09-13T06:46:57;5.50;;;3.70;;
28547;SDS011;15750;49.600;8.746;2022-09-13T06:49:46;4.97;;;3.80;;
28547;SDS011;15750;49.600;8.746;2022-09-13T06:52:33;3.85;;;3.55;;
28547;SDS011;15750;49.600;8.746;2022-09-13T06:55:21;3.65;;;3.42;;
28547;SDS011;15750;49.600;8.746;2022-09-13T06:58:09;3.97;;;3.67;;
28547;SDS011;15750;49.600;8.746;2022-09-13T07:01:04;3.70;;;3.40;;
28547;SDS011;15750;49.600;8.746;2022-09-13T07:03:56;3.80;;;3.50;;
28547;SDS011;15750;49.600;8.746;2022-09-13T07:06:47;3.60;;;3.30;;
28547;SDS011;15750;49.600;8.746;2022-09-13T07:09:35;3.75;;;3.40;;
28547;SDS011;15750;49.600;8.746;2022-09-13T07:12:23;3.45;;;3.20;;
28547;SDS011;15750;49.600;8.746;2022-09-13T07:15:10;3.97;;;3.60;;
28547;SDS011;15750;49.600;8.746;2022-09-13T07:17:57;4.05;;;3.63;;
28547;SDS011;15750;49.600;8.746;2022-09-13T07:20:44;3.75;;;3.42;;
28547;SDS011;15750;49.600;8.746;2022-09-13T07:23:33;4.63;;;3.50;;
28547;SDS011;15750;49.600;8.746;2022-09-13T07:26:23;4.32;;;3.50;;
28547;SDS011;15750;49.600;8.746;2022-09-13T07:29:12;3.40;;;3.13;;
28547;SDS011;15750;49.600;8.746;2022-09-13T07:32:03;3.95;;;3.65;;
28547;SDS011;15750;49.600;8.746;2022-09-13T07:34:50;3.65;;;3.35;;
28547;SDS011;15750;49.600;8.746;2022-09-13T07:37:37;5.25;;;3.70;;
28547;SDS011;15750;49.600;8.746;2022-09-13T07:40:27;3.97;;;3.22;;
28547;SDS011;15750;49.600;8.746;2022-09-13T07:43:14;3.88;;;3.45;;
28547;SDS011;15750;49.600;8.746;2022-09-13T07:46:02;4.03;;;3.63;;
28547;SDS011;15750;49.600;8.746;2022-09-13T07:48:52;3.95;;;3.47;;
28547;SDS011;15750;49.600;8.746;2022-09-13T07:51:41;3.97;;;3.67;;
28547;SDS011;15750;49.600;8.746;2022-09-13T07:54:29;4.05;;;3.70;;
28547;SDS011;15750;49.600;8.746;2022-09-13T07:57:18;5.88;;;3.65;;
28547;SDS011;15750;49.600;8.746;2022-09-13T08:00:06;6.70;;;3.53;;
28547;SDS011;15750;49.600;8.746;2022-09-13T08:02:55;3.80;;;3.35;;
28547;SDS011;15750;49.600;8.746;2022-09-13T08:05:42;3.22;;;3.03;;
28547;SDS011;15750;49.600;8.746;2022-09-13T08:08:30;4.45;;;3.38;;
28547;SDS011;15750;49.600;8.746;2022-09-13T08:11:19;4.07;;;3.33;;
28547;SDS011;15750;49.600;8.746;2022-09-13T08:14:10;4.45;;;3.10;;
28547;SDS011;15750;49.600;8.746;2022-09-13T08:17:00;3.75;;;3.45;;
28547;SDS011;15750;49.600;8.746;2022-09-13T08:19:47;3.65;;;3.35;;
28547;SDS011;15750;49.600;8.746;2022-09-13T08:22:34;3.50;;;3.20;;
28547;SDS011;15750;49.600;8.746;2022-09-13T08:25:21;3.85;;;3.55;;
28547;SDS011;15750;49.600;8.746;2022-09-13T08:28:09;4.22;;;3.83;;
28547;SDS011;15750;49.600;8.746;2022-09-13T08:31:06;3.58;;;3.28;;
28547;SDS011;15750;49.600;8.746;2022-09-13T08:33:55;3.80;;;3.40;;
28547;SDS011;15750;49.600;8.746;2022-09-13T08:36:42;3.88;;;3.58;;
28547;SDS011;15750;49.600;8.746;2022-09-13T08:39:30;3.33;;;3.03;;
28547;SDS011;15750;49.600;8.746;2022-09-13T08:42:19;5.88;;;3.50;;
28547;SDS011;15750;49.600;8.746;2022-09-13T08:45:17;4.30;;;3.88;;
28547;SDS011;15750;49.600;8.746;2022-09-13T08:48:09;4.95;;;3.60;;
28547;SDS011;15750;49.600;8.746;2022-09-13T08:51:03;3.42;;;3.13;;
28547;SDS011;15750;49.600;8.746;2022-09-13T08:53:53;3.63;;;3.25;;
28547;SDS011;15750;49.600;8.746;2022-09-13T08:56:43;3.70;;;3.40;;
28547;SDS011;15750;49.600;8.746;2022-09-13T08:59:41;3.75;;;3.45;;
28547;SDS011;15750;49.600;8.746;2022-09-13T09:02:48;3.80;;;3.10;;
28547;SDS011;15750;49.600;8.746;2022-09-13T09:05:45;3.72;;;3.42;;
28547;SDS011;15750;49.600;8.746;2022-09-13T09:08:36;4.82;;;3.20;;
28547;SDS011;15750;49.600;8.746;2022-09-13T09:11:31;3.70;;;3.40;;
28547;SDS011;15750;49.600;8.746;2022-09-13T09:14:27;4.47;;;3.88;;
28547;SDS011;15750;49.600;8.746;2022-09-13T09:17:19;3.92;;;3.38;;
28547;SDS011;15750;49.600;8.746;2022-09-13T09:20:15;3.78;;;3.38;;
28547;SDS011;15750;49.600;8.746;2022-09-13T09:23:13;3.03;;;2.83;;
28547;SDS011;15750;49.600;8.746;2022-09-13T09:26:12;4.30;;;3.20;;
28547;SDS011;15750;49.600;8.746;2022-09-13T09:29:04;4.70;;;3.60;;
28547;SDS011;15750;49.600;8.746;2022-09-13T09:32:08;3.50;;;3.20;;
28547;SDS011;15750;49.600;8.746;2022-09-13T09:35:11;3.22;;;2.92;;
28547;SDS011;15750;49.600;8.746;2022-09-13T09:38:17;5.18;;;3.47;;
28547;SDS011;15750;49.600;8.746;2022-09-13T09:41:24;3.22;;;2.92;;
28547;SDS011;15750;49.600;8.746;2022-09-13T09:44:16;3.72;;;3.42;;
28547;SDS011;15750;49.600;8.746;2022-09-13T09:47:11;3.15;;;2.95;;
28547;SDS011;15750;49.600;8.746;2022-09-13T09:50:02;3.05;;;2.85;;
28547;SDS011;15750;49.600;8.746;2022-09-13T09:52:58;3.65;;;3.35;;
28547;SDS011;15750;49.600;8.746;2022-09-13T09:55:51;3.22;;;2.90;;
28547;SDS011;15750;49.600;8.746;2022-09-13T09:58:45;3.63;;;3.33;;
28547;SDS011;15750;49.600;8.746;2022-09-13T10:01:33;3.55;;;3.25;;
28547;SDS011;15750;49.600;8.746;2022-09-13T10:04:24;3.80;;;3.50;;
28547;SDS011;15750;49.600;8.746;2022-09-13T10:07:20;3.45;;;3.15;;
28547;SDS011;15750;49.600;8.746;2022-09-13T10:10:18;3.38;;;2.97;;
28547;SDS011;15750;49.600;8.746;2022-09-13T10:13:13;3.00;;;2.72;;
28547;SDS011;15750;49.600;8.746;2022-09-13T10:16:05;3.25;;;3.00;;
28547;SDS011;15750;49.600;8.746;2022-09-13T10:19:21;3.45;;;3.15;;
28547;SDS011;15750;49.600;8.746;2022-09-13T10:22:11;3.95;;;3.65;;
28547;SDS011;15750;49.600;8.746;2022-09-13T10:25:12;4.10;;;3.70;;
28547;SDS011;15750;49.600;8.746;2022-09-13T10:28:01;3.35;;;3.05;;
28547;SDS011;15750;49.600;8.746;2022-09-13T10:30:57;5.55;;;3.50;;
28547;SDS011;15750;49.600;8.746;2022-09-13T10:33:55;4.07;;;3.78;;
28547;SDS011;15750;49.600;8.746;2022-09-13T10:36:48;3.60;;;3.30;;
28547;SDS011;15750;49.600;8.746;2022-09-13T10:39:48;4.03;;;3.72;;
28547;SDS011;15750;49.600;8.746;2022-09-13T10:42:48;3.80;;;3.50;;
28547;SDS011;15750;49.600;8.746;2022-09-13T10:45:38;4.38;;;3.97;;
28547;SDS011;15750;49.600;8.746;2022-09-13T10:48:29;4.18;;;3.80;;
28547;SDS011;15750;49.600;8.746;2022-09-13T10:51:34;4.18;;;3.88;;
28547;SDS011;15750;49.600;8.746;2022-09-13T10:54:22;3.92;;;3.60;;
28547;SDS011;15750;49.600;8.746;2022-09-13T10:57:19;3.83;;;3.53;;
28547;SDS011;15750;49.600;8.746;2022-09-13T11:00:21;4.22;;;3.92;;
28547;SDS011;15750;49.600;8.746;2022-09-13T11:03:26;5.43;;;3.55;;
28547;SDS011;15750;49.600;8.746;2022-09-13T11:06:30;3.78;;;3.47;;
28547;SDS011;15750;49.600;8.746;2022-09-13T11:09:27;5.35;;;4.13;;
28547;SDS011;15750;49.600;8.746;2022-09-13T11:12:22;3.90;;;3.60;;
28547;SDS011;15750;49.600;8.746;2022-09-13T11:15:19;4.05;;;3.72;;
28547;SDS011;15750;49.600;8.746;2022-09-13T11:18:33;4.38;;;4.03;;
28547;SDS011;15750;49.600;8.746;2022-09-13T11:21:42;4.00;;;3.67;;
28547;SDS011;15750;49.600;8.746;2022-09-13T11:24:44;4.35;;;3.95;;
28547;SDS011;15750;49.600;8.746;2022-09-13T11:27:49;4.43;;;4.13;;
28547;SDS011;15750;49.600;8.746;2022-09-13T11:30:49;4.25;;;3.95;;
28547;SDS011;15750;49.600;8.746;2022-09-13T11:33:58;6.63;;;4.60;;
28547;SDS011;15750;49.600;8.746;2022-09-13T11:37:05;4.97;;;4.57;;
28547;SDS011;15750;49.600;8.746;2022-09-13T11:40:10;7.18;;;5.50;;
28547;SDS011;15750;49.600;8.746;2022-09-13T11:43:18;8.25;;;5.53;;
28547;SDS011;15750;49.600;8.746;2022-09-13T11:46:23;5.47;;;4.97;;
28547;SDS011;15750;49.600;8.746;2022-09-13T11:49:27;5.03;;;4.63;;
28547;SDS011;15750;49.600;8.746;2022-09-13T11:52:47;6.00;;;5.43;;
28547;SDS011;15750;49.600;8.746;2022-09-13T11:55:50;9.00;;;5.20;;
28547;SDS011;15750;49.600;8.746;2022-09-13T11:58:43;5.97;;;5.18;;
28547;SDS011;15750;49.600;8.746;2022-09-13T12:01:36;5.78;;;4.82;;
28547;SDS011;15750;49.600;8.746;2022-09-13T12:04:30;5.53;;;5.03;;
28547;SDS011;15750;49.600;8.746;2022-09-13T12:07:26;5.70;;;5.20;;
28547;SDS011;15750;49.600;8.746;2022-09-13T12:10:21;7.25;;;5.18;;
28547;SDS011;15750;49.600;8.746;2022-09-13T12:13:14;5.63;;;4.78;;
28547;SDS011;15750;49.600;8.746;2022-09-13T12:16:07;6.13;;;5.50;;
28547;SDS011;15750;49.600;8.746;2022-09-13T12:18:59;4.88;;;4.03;;
28547;SDS011;15750;49.600;8.746;2022-09-13T12:21:50;4.25;;;3.95;;
28547;SDS011;15750;49.600;8.746;2022-09-13T12:24:41;4.35;;;3.88;;
28547;SDS011;15750;49.600;8.746;2022-09-13T12:27:33;5.88;;;5.32;;
28547;SDS011;15750;49.600;8.746;2022-09-13T12:30:27;6.60;;;5.38;;
28547;SDS011;15750;49.600;8.746;2022-09-13T12:33:26;5.40;;;4.90;;
28547;SDS011;15750;49.600;8.746;2022-09-13T12:36:18;5.43;;;5.00;;
28547;SDS011;15750;49.600;8.746;2022-09-13T12:43:06;5.05;;;4.55;;
28547;SDS011;15750;49.600;8.746;2022-09-13T12:46:35;4.35;;;4.05;;
28547;SDS011;15750;49.600;8.746;2022-09-13T12:50:16;4.35;;;3.78;;
28547;SDS011;15750;49.600;8.746;2022-09-13T12:53:39;4.90;;;4.40;;
28547;SDS011;15750;49.600;8.746;2022-09-13T12:56:58;4.68;;;3.75;;
28547;SDS011;15750;49.600;8.746;2022-09-13T13:00:09;4.75;;;4.20;;
28547;SDS011;15750;49.600;8.746;2022-09-13T13:03:15;5.63;;;4.13;;
28547;SDS011;15750;49.600;8.746;2022-09-13T13:06:06;5.00;;;4.60;;
28547;SDS011;15750;49.600;8.746;2022-09-13T13:08:57;4.57;;;3.90;;
28547;SDS011;15750;49.600;8.746;2022-09-13T13:11:48;6.00;;;4.68;;
28547;SDS011;15750;49.600;8.746;2022-09-13T13:14:48;5.25;;;4.75;;
28547;SDS011;15750;49.600;8.746;2022-09-13T13:17:39;5.15;;;4.75;;
28547;SDS011;15750;49.600;8.746;2022-09-13T13:20:44;5.93;;;5.40;;
28547;SDS011;15750;49.600;8.746;2022-09-13T13:27:36;4.15;;;3.85;;
28547;SDS011;15750;49.600;8.746;2022-09-13T13:33:49;7.03;;;3.40;;
28547;SDS011;15750;49.600;8.746;2022-09-13T13:36:42;4.60;;;4.20;;
28547;SDS011;15750;49.600;8.746;2022-09-13T13:39:34;4.22;;;3.20;;
28547;SDS011;15750;49.600;8.746;2022-09-13T13:42:24;4.68;;;3.15;;
28547;SDS011;15750;49.600;8.746;2022-09-13T13:45:17;6.70;;;3.88;;
28547;SDS011;15750;49.600;8.746;2022-09-13T13:48:11;5.70;;;4.00;;
28547;SDS011;15750;49.600;8.746;2022-09-13T13:51:13;4.55;;;4.15;;
28547;SDS011;15750;49.600;8.746;2022-09-13T13:57:22;4.03;;;3.67;;
28547;SDS011;15750;49.600;8.746;2022-09-13T14:00:13;3.55;;;3.03;;
28547;SDS011;15750;49.600;8.746;2022-09-13T14:03:08;3.58;;;3.15;;
28547;SDS011;15750;49.600;8.746;2022-09-13T14:06:11;4.00;;;3.60;;
28547;SDS011;15750;49.600;8.746;2022-09-13T14:09:07;3.65;;;3.35;;
28547;SDS011;15750;49.600;8.746;2022-09-13T14:12:23;3.63;;;3.17;;
28547;SDS011;15750;49.600;8.746;2022-09-13T14:15:22;3.20;;;2.90;;
28547;SDS011;15750;49.600;8.746;2022-09-13T14:18:39;3.10;;;2.90;;
28547;SDS011;15750;49.600;8.746;2022-09-13T14:21:37;3.45;;;3.15;;
28547;SDS011;15750;49.600;8.746;2022-09-13T14:24:25;9.38;;;3.40;;
28547;SDS011;15750;49.600;8.746;2022-09-13T14:27:12;3.38;;;3.08;;
28547;SDS011;15750;49.600;8.746;2022-09-13T14:30:13;4.85;;;3.30;;
28547;SDS011;15750;49.600;8.746;2022-09-13T14:33:04;4.10;;;3.20;;
28547;SDS011;15750;49.600;8.746;2022-09-13T14:35:58;3.40;;;3.10;;
28547;SDS011;15750;49.600;8.746;2022-09-13T14:38:50;2.85;;;2.65;;
28547;SDS011;15750;49.600;8.746;2022-09-13T14:41:41;3.17;;;2.90;;
28547;SDS011;15750;49.600;8.746;2022-09-13T14:44:29;2.92;;;2.72;;
28547;SDS011;15750;49.600;8.746;2022-09-13T14:47:17;3.72;;;3.42;;
28547;SDS011;15750;49.600;8.746;2022-09-13T14:50:11;4.43;;;3.17;;
28547;SDS011;15750;49.600;8.746;2022-09-13T14:53:04;3.15;;;2.88;;
28547;SDS011;15750;49.600;8.746;2022-09-13T14:55:57;3.55;;;3.25;;
28547;SDS011;15750;49.600;8.746;2022-09-13T14:58:52;3.60;;;3.08;;
28547;SDS011;15750;49.600;8.746;2022-09-13T15:01:42;2.90;;;2.70;;
28547;SDS011;15750;49.600;8.746;2022-09-13T15:04:29;3.95;;;2.78;;
28547;SDS011;15750;49.600;8.746;2022-09-13T15:07:21;2.70;;;2.50;;
28547;SDS011;15750;49.600;8.746;2022-09-13T15:10:20;2.95;;;2.75;;
28547;SDS011;15750;49.600;8.746;2022-09-13T15:13:10;3.58;;;3.28;;
28547;SDS011;15750;49.600;8.746;2022-09-13T15:16:00;3.25;;;3.03;;
28547;SDS011;15750;49.600;8.746;2022-09-13T15:18:48;3.90;;;3.17;;
28547;SDS011;15750;49.600;8.746;2022-09-13T15:22:10;4.57;;;3.33;;
28547;SDS011;15750;49.600;8.746;2022-09-13T15:25:04;3.80;;;2.95;;
28547;SDS011;15750;49.600;8.746;2022-09-13T15:27:54;9.38;;;3.47;;
28547;SDS011;15750;49.600;8.746;2022-09-13T15:30:42;4.03;;;3.25;;
28547;SDS011;15750;49.600;8.746;2022-09-13T15:33:30;3.85;;;3.55;;
28547;SDS011;15750;49.600;8.746;2022-09-13T15:36:27;4.00;;;3.70;;
28547;SDS011;15750;49.600;8.746;2022-09-13T15:39:15;4.20;;;3.80;;
28547;SDS011;15750;49.600;8.746;2022-09-13T15:42:04;3.90;;;3.60;;
28547;SDS011;15750;49.600;8.746;2022-09-13T15:44:54;4.07;;;3.70;;
28547;SDS011;15750;49.600;8.746;2022-09-13T15:47:43;3.88;;;3.50;;
28547;SDS011;15750;49.600;8.746;2022-09-13T15:50:32;4.13;;;3.72;;
28547;SDS011;15750;49.600;8.746;2022-09-13T15:53:20;3.85;;;3.40;;
28547;SDS011;15750;49.600;8.746;2022-09-13T15:56:08;4.00;;;3.63;;
28547;SDS011;15750;49.600;8.746;2022-09-13T15:59:01;5.60;;;3.67;;
28547;SDS011;15750;49.600;8.746;2022-09-13T16:01:50;4.57;;;3.75;;
28547;SDS011;15750;49.600;8.746;2022-09-13T16:04:40;4.07;;;3.70;;
28547;SDS011;15750;49.600;8.746;2022-09-13T16:07:27;3.65;;;3.35;;
28547;SDS011;15750;49.600;8.746;2022-09-13T16:10:16;3.70;;;3.40;;
28547;SDS011;15750;49.600;8.746;2022-09-13T16:13:05;3.83;;;3.30;;
28547;SDS011;15750;49.600;8.746;2022-09-13T16:15:52;8.85;;;3.47;;
28547;SDS011;15750;49.600;8.746;2022-09-13T16:18:44;3.03;;;2.83;;
28547;SDS011;15750;49.600;8.746;2022-09-13T16:21:31;3.50;;;3.20;;
28547;SDS011;15750;49.600;8.746;2022-09-13T16:24:19;3.35;;;3.15;;
28547;SDS011;15750;49.600;8.746;2022-09-13T16:27:06;3.65;;;3.30;;
28547;SDS011;15750;49.600;8.746;2022-09-13T16:29:55;3.40;;;3.05;;
28547;SDS011;15750;49.600;8.746;2022-09-13T16:32:42;3.75;;;3.20;;
28547;SDS011;15750;49.600;8.746;2022-09-13T16:35:31;4.05;;;3.60;;
28547;SDS011;15750;49.600;8.746;2022-09-13T16:38:19;3.22;;;3.03;;
28547;SDS011;15750;49.600;8.746;2022-09-13T16:41:06;3.85;;;3.53;;
28547;SDS011;15750;49.600;8.746;2022-09-13T16:43:54;3.45;;;3.17;;
28547;SDS011;15750;49.600;8.746;2022-09-13T16:46:41;3.00;;;2.80;;
28547;SDS011;15750;49.600;8.746;2022-09-13T16:49:29;3.15;;;2.85;;
28547;SDS011;15750;49.600;8.746;2022-09-13T16:52:17;3.22;;;3.00;;
28547;SDS011;15750;49.600;8.746;2022-09-13T16:55:05;3.72;;;3.30;;
28547;SDS011;15750;49.600;8.746;2022-09-13T16:57:53;4.88;;;3.22;;
28547;SDS011;15750;49.600;8.746;2022-09-13T17:00:42;3.10;;;2.90;;
28547;SDS011;15750;49.600;8.746;2022-09-13T17:03:29;3.33;;;2.97;;
28547;SDS011;15750;49.600;8.746;2022-09-13T17:06:16;3.00;;;2.80;;
28547;SDS011;15750;49.600;8.746;2022-09-13T17:09:07;3.53;;;3.22;;
28547;SDS011;15750;49.600;8.746;2022-09-13T17:11:54;3.28;;;2.97;;
28547;SDS011;15750;49.600;8.746;2022-09-13T17:14:42;3.35;;;3.05;;
28547;SDS011;15750;49.600;8.746;2022-09-13T17:17:31;3.55;;;3.20;;
28547;SDS011;15750;49.600;8.746;2022-09-13T17:20:20;3.13;;;2.92;;
28547;SDS011;15750;49.600;8.746;2022-09-13T17:23:07;3.10;;;2.90;;
28547;SDS011;15750;49.600;8.746;2022-09-13T17:25:56;3.47;;;3.15;;
28547;SDS011;15750;49.600;8.746;2022-09-13T17:28:44;3.55;;;3.25;;
28547;SDS011;15750;49.600;8.746;2022-09-13T17:31:31;3.03;;;2.72;;
28547;SDS011;15750;49.600;8.746;2022-09-13T17:34:20;3.78;;;3.08;;
28547;SDS011;15750;49.600;8.746;2022-09-13T17:37:07;3.15;;;2.60;;
28547;SDS011;15750;49.600;8.746;2022-09-13T17:39:55;3.50;;;2.92;;
28547;SDS011;15750;49.600;8.746;2022-09-13T17:42:43;4.85;;;3.40;;